createdAt,value
2018-12-27T00:00:00.510Z,8.60
2018-12-27T00:02:28.352Z,11.35
2018-12-27T00:04:56.873Z,9.18
2018-12-27T00:07:25.281Z,13.13
2018-12-27T00:09:52.985Z,7.72
2018-12-27T00:12:20.942Z,8.45
2018-12-27T00:14:48.718Z,9.50
2018-12-27T00:17:19.466Z,8.83
2018-12-27T00:19:47.401Z,8.95
2018-12-27T00:22:16.986Z,11.43
2018-12-27T00:24:44.693Z,12.15
2018-12-27T00:27:12.627Z,11.25
2018-12-27T00:29:40.475Z,9.10
2018-12-27T00:32:08.116Z,12.33
2018-12-27T00:34:36.310Z,9.30
2018-12-27T00:37:04.132Z,10.53
2018-12-27T00:39:31.886Z,7.62
2018-12-27T00:41:59.878Z,9.88
2018-12-27T00:44:27.656Z,12.85
2018-12-27T00:46:55.579Z,8.78
2018-12-27T00:49:26.249Z,13.30
2018-12-27T00:51:54.498Z,7.40
2018-12-27T00:54:22.658Z,8.28
2018-12-27T00:56:50.398Z,7.83
2018-12-27T00:59:18.172Z,8.95
2018-12-27T01:01:46.081Z,9.08
2018-12-27T01:04:13.827Z,7.33
2018-12-27T01:06:41.799Z,8.23
2018-12-27T01:09:09.661Z,8.15
2018-12-27T01:11:37.499Z,8.05
2018-12-27T01:14:05.303Z,6.60
2018-12-27T01:16:33.276Z,7.70
2018-12-27T01:19:01.222Z,7.35
2018-12-27T01:21:28.898Z,6.22
2018-12-27T01:23:57.017Z,7.50
2018-12-27T01:26:24.651Z,6.17
2018-12-27T01:28:52.567Z,6.37
2018-12-27T01:31:20.388Z,7.95
2018-12-27T01:33:48.332Z,7.95
2018-12-27T01:36:17.164Z,7.00
2018-12-27T01:38:45.687Z,20.77
2018-12-27T01:41:13.389Z,7.15
2018-12-27T01:43:41.017Z,7.08
2018-12-27T01:46:10.149Z,6.75
2018-12-27T01:48:38.868Z,7.72
2018-12-27T01:51:07.106Z,7.72
2018-12-27T01:53:34.982Z,9.28
2018-12-27T01:56:03.345Z,7.47
2018-12-27T01:58:31.968Z,8.08
2018-12-27T02:01:00.309Z,7.58
2018-12-27T02:03:28.350Z,10.78
2018-12-27T02:06:01.787Z,7.30
2018-12-27T02:08:29.977Z,9.38
2018-12-27T02:10:59.872Z,9.85
2018-12-27T02:13:28.658Z,7.55
2018-12-27T02:15:56.835Z,7.40
2018-12-27T02:18:25.626Z,7.87
2018-12-27T02:20:53.779Z,7.35
2018-12-27T02:23:22.091Z,7.28
2018-12-27T02:25:50.855Z,7.90
2018-12-27T02:28:19.145Z,9.08
2018-12-27T02:30:47.314Z,9.63
2018-12-27T02:33:15.584Z,10.90
2018-12-27T02:35:43.966Z,8.20
2018-12-27T02:38:12.268Z,7.75
2018-12-27T02:40:40.403Z,9.28
2018-12-27T02:43:08.297Z,8.45
2018-12-27T02:45:36.540Z,8.85
2018-12-27T02:48:04.952Z,8.10
2018-12-27T02:50:33.102Z,9.25
2018-12-27T02:53:00.915Z,8.63
2018-12-27T02:55:29.766Z,8.43
2018-12-27T02:57:59.170Z,7.95
2018-12-27T03:00:27.551Z,7.45
2018-12-27T03:02:55.725Z,7.95
2018-12-27T03:05:25.329Z,7.75
2018-12-27T03:07:54.437Z,8.35
2018-12-27T03:10:22.530Z,9.05
2018-12-27T03:12:51.791Z,9.95
2018-12-27T03:15:19.955Z,8.23
2018-12-27T03:17:48.259Z,7.45
2018-12-27T03:20:17.033Z,7.58
2018-12-27T03:22:47.262Z,8.10
2018-12-27T03:25:15.519Z,8.68
2018-12-27T03:27:43.905Z,7.45
2018-12-27T03:30:12.170Z,9.93
2018-12-27T03:32:40.456Z,10.90
2018-12-27T03:35:08.625Z,12.13
2018-12-27T03:37:36.901Z,10.80
2018-12-27T03:40:04.662Z,9.35
2018-12-27T03:42:32.265Z,8.75
2018-12-27T03:45:00.087Z,8.55
2018-12-27T03:47:27.936Z,8.65
2018-12-27T03:49:55.695Z,7.70
2018-12-27T03:52:24.534Z,8.43
2018-12-27T03:54:52.758Z,8.63
2018-12-27T03:57:20.621Z,7.12
2018-12-27T03:59:48.999Z,8.55
2018-12-27T04:02:16.744Z,9.23
2018-12-27T04:04:44.239Z,8.43
2018-12-27T04:07:12.776Z,9.93
2018-12-27T04:09:40.825Z,7.97
2018-12-27T04:12:08.569Z,8.25
2018-12-27T04:14:36.540Z,8.35
2018-12-27T04:17:04.586Z,7.92
2018-12-27T04:19:32.647Z,12.53
2018-12-27T04:22:00.402Z,9.90
2018-12-27T04:24:28.340Z,13.45
2018-12-27T04:26:56.013Z,9.70
2018-12-27T04:29:23.738Z,9.43
2018-12-27T04:31:54.335Z,11.40
2018-12-27T04:34:23.442Z,10.50
2018-12-27T04:36:52.962Z,15.10
2018-12-27T04:39:22.853Z,10.20
2018-12-27T04:41:50.441Z,11.40
2018-12-27T04:44:19.089Z,11.88
2018-12-27T04:46:47.689Z,10.78
2018-12-27T04:49:15.956Z,10.90
2018-12-27T04:51:43.890Z,10.28
2018-12-27T04:54:11.821Z,12.82
2018-12-27T04:56:42.453Z,11.10
2018-12-27T04:59:09.948Z,14.85
2018-12-27T05:01:38.590Z,10.30
2018-12-27T05:04:06.136Z,13.98
2018-12-27T05:06:33.899Z,10.35
2018-12-27T05:09:03.971Z,10.35
2018-12-27T05:11:31.735Z,11.25
2018-12-27T05:13:59.619Z,14.50
2018-12-27T05:16:27.466Z,10.63
2018-12-27T05:18:55.337Z,10.13
2018-12-27T05:21:23.183Z,16.65
2018-12-27T05:23:51.887Z,10.68
2018-12-27T05:26:20.333Z,15.58
2018-12-27T05:28:48.861Z,12.63
2018-12-27T05:31:17.292Z,12.70
2018-12-27T05:33:45.937Z,10.25
2018-12-27T05:36:14.255Z,10.18
2018-12-27T05:38:42.120Z,14.65
2018-12-27T05:41:10.393Z,15.80
2018-12-27T05:43:38.825Z,11.88
2018-12-27T05:46:07.391Z,13.53
2018-12-27T05:48:36.055Z,14.35
2018-12-27T05:51:04.325Z,17.55
2018-12-27T05:53:33.008Z,15.20
2018-12-27T05:56:00.772Z,11.80
2018-12-27T05:58:28.532Z,12.93
2018-12-27T06:00:56.961Z,14.25
2018-12-27T06:03:24.702Z,17.52
2018-12-27T06:05:53.395Z,16.37
2018-12-27T06:08:21.951Z,11.85
2018-12-27T06:10:49.524Z,17.15
2018-12-27T06:13:17.070Z,13.98
2018-12-27T06:15:44.838Z,13.13
2018-12-27T06:18:12.792Z,12.95
2018-12-27T06:20:40.706Z,12.00
2018-12-27T06:23:08.277Z,12.65
2018-12-27T06:25:36.442Z,14.20
2018-12-27T06:28:05.534Z,16.07
2018-12-27T06:30:34.251Z,14.10
2018-12-27T06:33:02.484Z,19.32
2018-12-27T06:35:30.190Z,16.05
2018-12-27T06:37:59.015Z,18.32
2018-12-27T06:40:26.804Z,19.02
2018-12-27T06:42:54.676Z,18.55
2018-12-27T06:45:22.282Z,13.20
2018-12-27T06:47:51.156Z,16.23
2018-12-27T06:50:19.116Z,17.25
2018-12-27T06:52:46.923Z,18.12
2018-12-27T06:55:14.468Z,22.22
2018-12-27T06:57:42.543Z,20.00
2018-12-27T07:00:10.150Z,20.80
2018-12-27T07:02:38.037Z,18.25
2018-12-27T07:05:05.904Z,18.02
2018-12-27T07:07:33.738Z,19.80
2018-12-27T07:10:02.218Z,20.17
2018-12-27T07:12:29.890Z,20.65
2018-12-27T07:14:58.112Z,18.25
2018-12-27T07:17:26.089Z,19.48
2018-12-27T07:19:54.764Z,20.68
2018-12-27T07:22:22.564Z,22.58
2018-12-27T07:24:50.882Z,33.98
2018-12-27T07:27:19.670Z,18.90
2018-12-27T07:29:47.462Z,19.15
2018-12-27T07:32:15.028Z,20.00
2018-12-27T07:34:42.793Z,21.68
2018-12-27T07:37:10.568Z,23.73
2018-12-27T07:39:38.495Z,21.35
2018-12-27T07:42:06.114Z,20.30
2018-12-27T07:44:35.353Z,17.50
2018-12-27T07:47:03.394Z,21.15
2018-12-27T07:49:31.150Z,18.23
2018-12-27T07:51:58.595Z,20.85
2018-12-27T07:54:26.597Z,22.20
2018-12-27T07:56:54.335Z,24.95
2018-12-27T07:59:22.179Z,28.80
2018-12-27T08:01:50.116Z,26.80
2018-12-27T08:04:17.915Z,22.90
2018-12-27T08:06:45.946Z,20.45
2018-12-27T08:09:13.726Z,19.70
2018-12-27T08:11:41.616Z,17.95
2018-12-27T08:14:09.184Z,21.85
2018-12-27T08:16:36.845Z,22.67
2018-12-27T08:19:04.783Z,20.27
2018-12-27T08:21:32.671Z,21.95
2018-12-27T08:24:01.040Z,20.35
2018-12-27T08:26:29.200Z,23.57
2018-12-27T08:28:57.059Z,17.87
2018-12-27T08:31:24.942Z,19.98
2018-12-27T08:33:53.991Z,18.95
2018-12-27T08:36:22.627Z,20.48
2018-12-27T08:38:50.258Z,19.32
2018-12-27T08:41:20.120Z,19.62
2018-12-27T08:43:47.951Z,20.80
2018-12-27T08:46:15.798Z,21.65
2018-12-27T08:48:43.574Z,19.87
2018-12-27T08:51:11.575Z,19.80
2018-12-27T08:53:39.311Z,17.48
2018-12-27T08:56:07.384Z,25.48
2018-12-27T08:58:35.343Z,19.42
2018-12-27T09:01:02.877Z,20.30
2018-12-27T09:03:30.907Z,18.60
2018-12-27T09:05:58.743Z,18.02
2018-12-27T09:08:28.720Z,18.30
2018-12-27T09:10:56.897Z,16.32
2018-12-27T09:13:26.530Z,18.48
2018-12-27T09:15:54.212Z,16.67
2018-12-27T09:18:22.617Z,17.67
2018-12-27T09:20:50.757Z,18.70
2018-12-27T09:23:18.694Z,23.62
2018-12-27T09:25:47.401Z,21.85
2018-12-27T09:28:15.325Z,20.57
2018-12-27T09:30:43.921Z,16.48
2018-12-27T09:33:11.847Z,17.60
2018-12-27T09:35:43.212Z,17.32
2018-12-27T09:38:10.809Z,24.43
2018-12-27T09:40:38.636Z,22.98
2018-12-27T09:43:06.208Z,21.90
2018-12-27T09:45:34.011Z,19.60
2018-12-27T09:48:01.824Z,29.23
2018-12-27T09:50:29.674Z,16.85
2018-12-27T09:53:00.538Z,22.22
2018-12-27T09:55:28.393Z,18.25
2018-12-27T09:57:56.194Z,16.93
2018-12-27T10:00:24.722Z,20.82
2018-12-27T10:02:53.730Z,21.10
2018-12-27T10:05:22.003Z,32.73
2018-12-27T10:07:57.321Z,17.95
2018-12-27T10:10:20.595Z,19.30
2018-12-27T10:12:48.901Z,19.10
2018-12-27T10:15:17.161Z,19.48
2018-12-27T10:17:45.431Z,21.00
2018-12-27T10:20:13.709Z,16.67
2018-12-27T10:22:42.019Z,23.75
2018-12-27T10:25:09.797Z,18.27
2018-12-27T10:27:37.514Z,20.05
2018-12-27T10:30:05.709Z,23.55
2018-12-27T10:32:33.673Z,16.10
2018-12-27T10:35:01.354Z,16.17
2018-12-27T10:37:29.040Z,16.52
2018-12-27T10:39:56.947Z,17.95
2018-12-27T10:42:24.543Z,20.57
2018-12-27T10:44:53.467Z,20.12
2018-12-27T10:47:21.349Z,20.23
2018-12-27T10:49:49.985Z,19.50
2018-12-27T10:52:17.791Z,18.30
2018-12-27T10:54:45.335Z,18.82
2018-12-27T10:57:12.995Z,16.12
2018-12-27T10:59:40.641Z,19.20
2018-12-27T11:02:08.499Z,18.42
2018-12-27T11:04:36.718Z,24.05
2018-12-27T11:07:04.594Z,21.17
2018-12-27T11:09:32.413Z,14.75
2018-12-27T11:12:00.735Z,19.57
2018-12-27T11:14:32.381Z,18.30
2018-12-27T11:17:00.232Z,18.32
2018-12-27T11:19:28.668Z,20.70
2018-12-27T11:21:56.273Z,20.23
2018-12-27T11:24:26.547Z,20.88
2018-12-27T11:26:55.233Z,29.05
2018-12-27T11:29:25.473Z,22.25
2018-12-27T11:31:54.226Z,19.10
2018-12-27T11:34:25.719Z,20.12
2018-12-27T11:36:54.360Z,22.07
2018-12-27T11:39:22.639Z,22.95
2018-12-27T11:41:50.918Z,22.02
2018-12-27T11:44:18.783Z,19.48
2018-12-27T11:46:47.076Z,20.80
2018-12-27T11:49:15.356Z,20.65
2018-12-27T11:51:43.615Z,21.05
2018-12-27T11:54:11.882Z,23.67
2018-12-27T11:56:41.393Z,24.70
2018-12-27T11:59:09.684Z,23.35
2018-12-27T12:01:41.115Z,22.02
2018-12-27T12:04:09.511Z,19.07
2018-12-27T12:06:39.813Z,22.65
2018-12-27T12:09:08.980Z,21.60
2018-12-27T12:11:37.201Z,18.45
2018-12-27T12:14:05.477Z,21.82
2018-12-27T12:16:33.169Z,20.10
2018-12-27T12:19:04.226Z,21.77
2018-12-27T12:21:33.225Z,20.00
2018-12-27T12:24:00.907Z,23.60
2018-12-27T12:26:28.708Z,18.87
2018-12-27T12:28:56.635Z,24.63
2018-12-27T12:31:25.386Z,24.30
2018-12-27T12:33:53.252Z,24.25
2018-12-27T12:36:21.097Z,23.83
2018-12-27T12:38:48.921Z,21.05
2018-12-27T12:41:16.788Z,23.07
2018-12-27T12:43:44.459Z,17.48
2018-12-27T12:46:12.153Z,17.55
2018-12-27T12:48:39.747Z,19.70
2018-12-27T12:51:09.433Z,19.60
2018-12-27T12:53:37.375Z,18.67
2018-12-27T12:56:05.307Z,16.25
2018-12-27T12:58:34.211Z,24.18
2018-12-27T13:01:03.019Z,23.73
2018-12-27T13:03:30.860Z,24.63
2018-12-27T13:05:59.064Z,18.90
2018-12-27T13:08:27.103Z,15.95
2018-12-27T13:10:54.911Z,23.70
2018-12-27T13:13:22.633Z,27.73
2018-12-27T13:15:50.823Z,18.30
2018-12-27T13:18:18.441Z,15.83
2018-12-27T13:20:46.400Z,25.00
2018-12-27T13:23:14.173Z,21.40
2018-12-27T13:25:43.856Z,19.75
2018-12-27T13:28:11.939Z,19.27
2018-12-27T13:30:39.924Z,20.55
2018-12-27T13:33:07.637Z,19.00
2018-12-27T13:35:35.559Z,16.87
2018-12-27T13:38:03.368Z,17.95
2018-12-27T13:40:31.313Z,18.50
2018-12-27T13:42:59.092Z,20.30
2018-12-27T13:45:27.111Z,26.93
2018-12-27T13:47:55.208Z,24.45
2018-12-27T13:50:23.256Z,20.97
2018-12-27T13:52:51.426Z,23.55
2018-12-27T13:55:19.370Z,20.45
2018-12-27T13:57:47.163Z,19.67
2018-12-27T14:00:15.021Z,15.20
2018-12-27T14:02:42.831Z,17.62
2018-12-27T14:05:11.649Z,17.45
2018-12-27T14:07:39.346Z,21.80
2018-12-27T14:10:07.643Z,24.43
2018-12-27T14:12:35.195Z,15.88
2018-12-27T14:15:03.468Z,19.42
2018-12-27T14:17:31.223Z,41.80
2018-12-27T14:19:59.756Z,16.52
2018-12-27T14:22:28.126Z,17.85
2018-12-27T14:24:58.036Z,21.17
2018-12-27T14:27:26.636Z,22.52
2018-12-27T14:29:56.243Z,20.80
2018-12-27T14:32:24.836Z,18.25
2018-12-27T14:34:53.117Z,20.88
2018-12-27T14:37:21.379Z,20.05
2018-12-27T14:39:49.677Z,22.07
2018-12-27T14:42:17.322Z,23.65
2018-12-27T14:44:45.083Z,22.95
2018-12-27T14:47:12.743Z,21.65
2018-12-27T14:49:40.570Z,20.90
2018-12-27T14:52:09.283Z,23.65
2018-12-27T14:54:37.055Z,24.87
2018-12-27T14:57:05.087Z,23.27
2018-12-27T14:59:32.806Z,25.57
2018-12-27T15:02:00.454Z,23.67
2018-12-27T15:04:28.130Z,21.68
2018-12-27T15:06:56.593Z,21.48
2018-12-27T15:09:25.009Z,21.20
2018-12-27T15:11:53.550Z,23.25
2018-12-27T15:14:21.849Z,23.40
2018-12-27T15:16:50.113Z,22.37
2018-12-27T15:19:18.795Z,21.97
2018-12-27T15:21:47.062Z,23.40
2018-12-27T15:24:15.464Z,23.95
2018-12-27T15:26:43.610Z,22.42
2018-12-27T15:29:11.323Z,27.20
2018-12-27T15:31:39.265Z,26.93
2018-12-27T15:34:07.899Z,23.10
2018-12-27T15:36:38.736Z,20.50
2018-12-27T15:39:06.527Z,20.60
2018-12-27T15:41:34.914Z,23.85
2018-12-27T15:44:04.822Z,24.72
2018-12-27T15:46:33.133Z,27.45
2018-12-27T15:49:00.765Z,29.45
2018-12-27T15:51:28.736Z,23.57
2018-12-27T15:53:56.532Z,26.00
2018-12-27T15:56:24.451Z,24.23
2018-12-27T15:58:52.194Z,27.20
2018-12-27T16:01:20.271Z,24.18
2018-12-27T16:03:48.423Z,25.62
2018-12-27T16:06:16.773Z,25.65
2018-12-27T16:08:44.536Z,29.05
2018-12-27T16:11:12.171Z,26.17
2018-12-27T16:13:39.846Z,24.52
2018-12-27T16:16:08.239Z,32.20
2018-12-27T16:18:36.992Z,36.35
2018-12-27T16:21:04.737Z,24.10
2018-12-27T16:23:33.016Z,20.88
2018-12-27T16:26:00.918Z,25.55
2018-12-27T16:28:28.629Z,29.18
2018-12-27T16:30:59.047Z,25.75
2018-12-27T16:33:26.850Z,27.87
2018-12-27T16:35:58.223Z,29.32
2018-12-27T16:38:25.863Z,30.85
2018-12-27T16:40:54.220Z,27.65
2018-12-27T16:43:22.391Z,26.65
2018-12-27T16:45:50.138Z,20.57
2018-12-27T16:48:17.803Z,23.62
2018-12-27T16:50:45.594Z,28.12
2018-12-27T16:53:13.691Z,24.02
2018-12-27T16:55:41.246Z,26.60
2018-12-27T16:58:09.748Z,24.67
2018-12-27T17:00:37.560Z,24.10
2018-12-27T17:03:05.424Z,25.68
2018-12-27T17:05:33.210Z,18.87
2018-12-27T17:08:01.195Z,21.45
2018-12-27T17:10:28.990Z,20.82
2018-12-27T17:12:56.922Z,20.72
2018-12-27T17:15:24.729Z,19.70
2018-12-27T17:17:52.625Z,23.57
2018-12-27T17:20:20.365Z,19.27
2018-12-27T17:22:49.680Z,17.87
2018-12-27T17:25:18.961Z,23.95
2018-12-27T17:27:46.902Z,22.13
2018-12-27T17:30:16.815Z,24.12
2018-12-27T17:32:44.710Z,20.00
2018-12-27T17:35:12.498Z,20.00
2018-12-27T17:37:41.345Z,17.65
2018-12-27T17:40:10.263Z,18.10
2018-12-27T17:42:39.528Z,20.37
2018-12-27T17:45:07.150Z,23.25
2018-12-27T17:47:34.795Z,24.55
2018-12-27T17:50:02.836Z,16.48
2018-12-27T17:52:30.938Z,16.25
2018-12-27T17:54:58.843Z,16.82
2018-12-27T17:57:26.692Z,16.40
2018-12-27T17:59:55.383Z,21.25
2018-12-27T18:02:23.602Z,20.17
2018-12-27T18:04:51.446Z,15.45
2018-12-27T18:07:19.007Z,18.60
2018-12-27T18:09:46.760Z,19.20
2018-12-27T18:12:15.457Z,19.98
2018-12-27T18:14:43.426Z,17.77
2018-12-27T18:17:11.231Z,25.40
2018-12-27T18:19:39.134Z,17.92
2018-12-27T18:22:06.892Z,19.90
2018-12-27T18:24:34.813Z,18.17
2018-12-27T18:27:03.306Z,15.13
2018-12-27T18:29:31.302Z,18.40
2018-12-27T18:31:59.723Z,16.02
2018-12-27T18:34:27.964Z,19.07
2018-12-27T18:36:56.370Z,20.62
2018-12-27T18:39:24.066Z,15.75
2018-12-27T18:41:56.140Z,18.37
2018-12-27T18:44:25.146Z,16.35
2018-12-27T18:46:53.493Z,24.23
2018-12-27T18:49:21.798Z,18.95
2018-12-27T18:51:51.310Z,20.35
2018-12-27T18:54:18.917Z,17.25
2018-12-27T18:56:47.490Z,17.27
2018-12-27T18:59:15.757Z,15.63
2018-12-27T19:01:44.509Z,17.60
2018-12-27T19:04:13.850Z,21.00
2018-12-27T19:06:41.894Z,19.48
2018-12-27T19:09:10.095Z,20.85
2018-12-27T19:12:14.255Z,15.50
2018-12-27T19:14:43.010Z,16.15
2018-12-27T19:17:22.484Z,17.73
2018-12-27T19:19:51.119Z,20.60
2018-12-27T19:22:29.275Z,15.13
2018-12-27T19:24:57.615Z,14.70
2018-12-27T19:27:25.362Z,14.00
2018-12-27T19:29:54.182Z,12.95
2018-12-27T19:32:22.751Z,16.50
2018-12-27T19:34:51.435Z,15.48
2018-12-27T19:37:20.124Z,15.85
2018-12-27T19:39:48.394Z,15.15
2018-12-27T19:42:19.114Z,15.35
2018-12-27T19:44:47.407Z,17.42
2018-12-27T19:47:15.698Z,13.62
2018-12-27T19:49:44.273Z,15.38
2018-12-27T19:52:12.742Z,12.30
2018-12-27T19:54:40.916Z,17.73
2018-12-27T19:57:09.293Z,15.83
2018-12-27T19:59:36.966Z,17.00
2018-12-27T20:02:05.432Z,15.80
2018-12-27T20:04:34.068Z,17.42
2018-12-27T20:07:02.299Z,17.07
2018-12-27T20:09:30.584Z,15.88
2018-12-27T20:11:58.672Z,11.50
2018-12-27T20:14:26.721Z,14.35
2018-12-27T20:16:54.997Z,12.40
2018-12-27T20:19:23.676Z,14.63
2018-12-27T20:21:51.955Z,11.50
2018-12-27T20:24:19.724Z,14.40
2018-12-27T20:26:48.003Z,15.78
2018-12-27T20:29:15.809Z,15.80
2018-12-27T20:31:43.620Z,13.48
2018-12-27T20:34:12.066Z,11.40
2018-12-27T20:36:39.783Z,12.85
2018-12-27T20:39:07.913Z,14.10
2018-12-27T20:41:35.501Z,12.82
2018-12-27T20:44:03.437Z,13.20
2018-12-27T20:46:30.992Z,11.38
2018-12-27T20:48:59.136Z,12.45
2018-12-27T20:51:27.813Z,12.75
2018-12-27T20:53:56.635Z,12.50
2018-12-27T20:56:24.777Z,10.30
2018-12-27T20:58:52.774Z,10.23
2018-12-27T21:01:20.726Z,9.35
2018-12-27T21:03:48.376Z,8.38
2018-12-27T21:06:16.189Z,9.65
2018-12-27T21:08:44.097Z,12.50
2018-12-27T21:11:15.013Z,10.00
2018-12-27T21:13:42.638Z,10.30
2018-12-27T21:16:10.597Z,9.08
2018-12-27T21:18:39.209Z,10.75
2018-12-27T21:21:07.181Z,11.08
2018-12-27T21:23:37.484Z,11.90
2018-12-27T21:26:05.275Z,9.40
2018-12-27T21:28:33.179Z,11.55
2018-12-27T21:31:01.114Z,11.68
2018-12-27T21:33:29.845Z,9.88
2018-12-27T21:35:58.185Z,10.05
2018-12-27T21:38:26.448Z,10.00
2018-12-27T21:40:54.748Z,11.38
2018-12-27T21:43:23.005Z,11.38
2018-12-27T21:45:51.285Z,11.97
2018-12-27T21:48:21.615Z,11.90
2018-12-27T21:50:51.114Z,11.83
2018-12-27T21:53:19.380Z,10.18
2018-12-27T21:55:47.668Z,13.28
2018-12-27T21:58:16.356Z,11.25
2018-12-27T22:00:44.734Z,11.93
2018-12-27T22:03:15.253Z,11.05
2018-12-27T22:05:44.072Z,11.40
2018-12-27T22:08:12.733Z,9.55
2018-12-27T22:10:41.018Z,10.60
2018-12-27T22:13:09.668Z,10.28
2018-12-27T22:15:38.300Z,8.75
2018-12-27T22:18:09.972Z,9.33
2018-12-27T22:20:38.923Z,10.20
2018-12-27T22:23:07.884Z,9.33
2018-12-27T22:25:35.866Z,8.35
2018-12-27T22:28:03.508Z,9.18
2018-12-27T22:30:31.232Z,8.28
2018-12-27T22:32:59.066Z,12.20
2018-12-27T22:35:26.902Z,9.65
2018-12-27T22:37:57.158Z,10.72
2018-12-27T22:40:24.833Z,12.65
2018-12-27T22:42:52.432Z,11.00
2018-12-27T22:45:20.548Z,12.40
2018-12-27T22:47:48.156Z,12.47
2018-12-27T22:50:15.685Z,13.35
2018-12-27T22:52:43.621Z,11.22
2018-12-27T22:55:11.457Z,12.98
2018-12-27T22:57:40.103Z,16.90
2018-12-27T23:00:16.364Z,14.83
2018-12-27T23:02:45.388Z,16.02
2018-12-27T23:05:13.018Z,11.68
2018-12-27T23:07:41.032Z,13.10
2018-12-27T23:10:08.925Z,14.07
2018-12-27T23:12:36.657Z,12.63
2018-12-27T23:15:04.571Z,11.38
2018-12-27T23:17:32.174Z,10.58
2018-12-27T23:20:00.028Z,15.10
2018-12-27T23:22:27.715Z,13.60
2018-12-27T23:24:59.344Z,10.23
2018-12-27T23:27:27.180Z,13.98
2018-12-27T23:30:01.076Z,10.18
2018-12-27T23:32:28.736Z,18.55
2018-12-27T23:34:56.878Z,17.45
2018-12-27T23:37:24.794Z,12.93
2018-12-27T23:39:52.604Z,17.17
2018-12-27T23:42:20.637Z,13.80
2018-12-27T23:44:48.401Z,13.20
2018-12-27T23:47:15.935Z,12.80
2018-12-27T23:49:43.847Z,14.13
2018-12-27T23:52:14.041Z,15.93
2018-12-27T23:54:41.947Z,10.82
2018-12-27T23:57:11.105Z,13.08
2018-12-27T23:59:38.954Z,11.20
